Time;durP1;ratioP1;P1;durP2;ratioP2;P2;SDS_P1;SDS_P2;PMS_P1;PMS_P2;Temp;Humidity;BMP_temperature;BMP_pressure;BME280_temperature;BME280_humidity;BME280_pressure;Samples;Min_cycle;Max_cycle;Signal;HPM_P1;HPM_P2
2024/02/18 00:01:58;;;;;;;18.48;11.23;;;6.20;99.90;;;;;;4965704;28;20278;-84
2024/02/18 00:04:23;;;;;;;18.98;11.40;;;6.60;99.90;;;;;;4968041;28;20121;-84
2024/02/18 00:06:49;;;;;;;20.20;11.65;;;6.30;99.90;;;;;;4980726;28;20030;-84
2024/02/18 00:09:15;;;;;;;18.27;11.43;;;6.30;99.90;;;;;;4993088;28;20130;-85
2024/02/18 00:11:40;;;;;;;20.17;12.50;;;6.40;99.90;;;;;;4998253;28;20034;-82
2024/02/18 00:14:06;;;;;;;26.15;12.15;;;6.40;99.90;;;;;;4990289;28;20030;-84
2024/02/18 00:16:32;;;;;;;22.67;11.95;;;6.30;99.90;;;;;;4980625;28;20036;-85
2024/02/18 00:18:57;;;;;;;23.13;13.25;;;6.40;99.90;;;;;;4980553;28;20026;-84
2024/02/18 00:21:23;;;;;;;18.25;11.50;;;6.40;99.90;;;;;;4998942;28;20037;-83
2024/02/18 00:23:49;;;;;;;21.83;13.00;;;6.30;99.90;;;;;;4986614;28;20069;-85
2024/02/18 00:26:14;;;;;;;22.80;12.13;;;6.30;99.90;;;;;;5000883;28;20026;-85
2024/02/18 00:28:40;;;;;;;21.95;12.50;;;6.30;99.90;;;;;;4974110;28;20029;-83
2024/02/18 00:31:06;;;;;;;18.08;10.90;;;6.30;99.90;;;;;;4978303;28;20056;-84
2024/02/18 00:33:32;;;;;;;21.63;12.15;;;6.30;99.90;;;;;;4985936;28;20014;-84
2024/02/18 00:35:57;;;;;;;22.33;12.68;;;6.40;99.90;;;;;;4979496;28;20022;-88
2024/02/18 00:38:23;;;;;;;22.58;12.93;;;6.40;99.90;;;;;;4983674;28;20134;-83
2024/02/18 00:40:49;;;;;;;20.90;12.23;;;6.50;99.90;;;;;;4967051;28;20027;-84
2024/02/18 00:43:14;;;;;;;19.60;12.23;;;6.40;99.90;;;;;;4981056;28;20115;-85
2024/02/18 00:45:40;;;;;;;17.17;10.77;;;6.40;99.90;;;;;;4979819;28;20114;-86
2024/02/18 00:48:06;;;;;;;18.40;10.82;;;6.40;99.90;;;;;;4976926;28;20066;-84
2024/02/18 00:50:32;;;;;;;20.27;11.85;;;6.40;99.90;;;;;;4981376;28;20034;-83
2024/02/18 00:52:58;;;;;;;27.00;13.13;;;6.40;99.90;;;;;;4969960;28;20058;-85
2024/02/18 00:55:24;;;;;;;19.20;12.25;;;6.40;99.90;;;;;;4977072;28;20030;-86
2024/02/18 00:57:50;;;;;;;21.55;12.85;;;6.50;99.90;;;;;;4992627;28;20035;-85
2024/02/18 09:57:42;;;;;;;14.95;8.65;;;;;;;;;;5086262;27;1686854;-90
2024/02/18 10:00:12;;;;;;;14.30;8.20;;;;;;;;;;5123097;28;20029;-88
2024/02/18 10:02:41;;;;;;;14.05;8.27;;;9.30;99.90;;;;;;5121357;28;20020;-91
2024/02/18 10:05:08;;;;;;;16.05;8.90;;;9.40;99.90;;;;;;5115061;28;20029;-88
2024/02/18 10:07:35;;;;;;;16.27;8.73;;;9.30;99.90;;;;;;5096847;28;20032;-85
2024/02/18 10:10:02;;;;;;;15.40;8.05;;;10.20;99.90;;;;;;5113077;28;20030;-87
2024/02/18 10:12:32;;;;;;;11.50;7.72;;;10.30;99.90;;;;;;5112882;28;20031;-88
2024/02/18 10:15:01;;;;;;;16.00;9.32;;;9.60;99.90;;;;;;5109616;28;20016;-90
2024/02/18 10:17:27;;;;;;;16.23;8.93;;;11.00;99.90;;;;;;5108652;28;20055;-90
2024/02/18 10:19:57;;;;;;;12.07;7.35;;;10.50;99.90;;;;;;5110915;28;20063;-88
2024/02/18 10:22:38;;;;;;;13.90;7.85;;;8.50;99.90;;;;;;5113294;28;20062;-88
2024/02/18 10:25:07;;;;;;;13.43;7.00;;;8.50;99.90;;;;;;5117217;28;20020;-89
2024/02/18 10:27:39;;;;;;;12.13;6.50;;;9.80;99.90;;;;;;5105026;28;20028;-92
2024/02/18 10:30:08;;;;;;;9.45;5.25;;;9.80;99.90;;;;;;5111678;28;20453;-90
2024/02/18 10:32:34;;;;;;;10.10;4.87;;;9.90;99.90;;;;;;5108961;28;20032;-88
2024/02/18 10:35:04;;;;;;;8.43;4.35;;;9.60;99.90;;;;;;5111470;28;20027;-90
2024/02/18 10:37:34;;;;;;;13.73;5.60;;;10.00;99.90;;;;;;5102092;28;20032;-88
2024/02/18 10:40:02;;;;;;;9.85;6.65;;;11.30;99.90;;;;;;5108090;28;20023;-88
2024/02/18 10:42:35;;;;;;;10.73;6.22;;;9.60;99.90;;;;;;5107451;28;20034;-88
2024/02/18 10:45:03;;;;;;;13.02;7.07;;;10.90;99.90;;;;;;5108834;28;20035;-88
2024/02/18 10:47:32;;;;;;;11.35;7.43;;;10.10;99.90;;;;;;5109825;28;20028;-89
2024/02/18 10:50:23;;;;;;;14.30;7.40;;;10.20;99.90;;;;;;5105881;28;20048;-88
2024/02/18 10:52:58;;;;;;;14.23;7.60;;;10.10;99.90;;;;;;5106271;28;20460;-88
2024/02/18 10:56:40;;;;;;;9.77;6.00;;;11.10;99.90;;;;;;5094569;28;20032;-88
2024/02/18 10:59:10;;;;;;;10.00;5.13;;;10.90;99.90;;;;;;5086832;28;20043;-88
2024/02/18 11:02:03;;;;;;;11.02;5.47;;;10.30;99.90;;;;;;5105667;28;20032;-86
2024/02/18 11:04:54;;;;;;;11.10;5.13;;;10.30;99.90;;;;;;5103707;28;20057;-89
2024/02/18 11:07:55;;;;;;;9.75;5.65;;;10.00;99.90;;;;;;5108197;28;20115;-84
2024/02/18 11:10:21;;;;;;;9.80;5.53;;;11.70;99.90;;;;;;5092151;28;20047;-90
2024/02/18 11:12:48;;;;;;;12.00;5.80;;;10.00;99.90;;;;;;5091781;28;20077;-88
2024/02/18 11:15:14;;;;;;;12.13;6.00;;;9.90;99.90;;;;;;5092935;28;20024;-85
2024/02/18 11:17:42;;;;;;;9.20;5.55;;;9.80;99.90;;;;;;5091354;28;20028;-86
2024/02/18 11:20:22;;;;;;;8.27;5.45;;;9.90;99.90;;;;;;5088871;28;20024;-85
2024/02/18 11:22:56;;;;;;;14.38;6.15;;;10.30;99.90;;;;;;5093225;28;20128;-86
2024/02/18 11:25:25;;;;;;;10.00;5.70;;;10.30;99.90;;;;;;5090183;28;20085;-87
2024/02/18 11:27:57;;;;;;;9.25;5.28;;;10.20;99.90;;;;;;5088078;28;20027;-87
2024/02/18 11:30:38;;;;;;;10.23;5.70;;;10.10;99.90;;;;;;5080402;28;20067;-88
2024/02/18 11:33:18;;;;;;;9.00;4.97;;;10.10;99.90;;;;;;5094131;28;20034;-87
2024/02/18 11:35:44;;;;;;;9.73;5.47;;;10.00;99.90;;;;;;5090419;28;20141;-88
2024/02/18 11:38:16;;;;;;;8.30;4.97;;;9.90;99.90;;;;;;5089434;28;20521;-87
2024/02/18 11:40:46;;;;;;;8.93;5.25;;;9.90;99.90;;;;;;5092660;28;20084;-84
2024/02/18 11:43:19;;;;;;;7.78;5.07;;;9.90;99.90;;;;;;5093334;28;20024;-88
2024/02/18 11:45:49;;;;;;;9.90;5.10;;;9.90;99.90;;;;;;5093997;28;20020;-89
2024/02/18 11:48:20;;;;;;;10.85;5.68;;;11.60;99.90;;;;;;5085753;28;20047;-86
2024/02/18 11:50:46;;;;;;;11.20;5.65;;;9.90;99.90;;;;;;5087910;28;20035;-88
2024/02/18 11:53:18;;;;;;;10.38;5.35;;;11.50;99.90;;;;;;5096194;28;20024;-88
2024/02/18 11:55:44;;;;;;;10.93;5.03;;;9.50;99.90;;;;;;5095455;28;20498;-90
2024/02/18 11:58:10;;;;;;;10.77;5.55;;;11.50;99.90;;;;;;5090488;28;20112;-90
2024/02/18 12:00:35;;;;;;;7.90;4.95;;;11.40;99.90;;;;;;5094775;28;20020;-89
2024/02/18 12:03:01;;;;;;;12.70;5.63;;;11.20;99.90;;;;;;5088855;28;20051;-89
2024/02/18 12:05:28;;;;;;;12.07;5.63;;;11.60;99.90;;;;;;5085441;28;20024;-88
2024/02/18 12:07:54;;;;;;;9.40;5.55;;;10.20;99.90;;;;;;5087589;28;20316;-88
2024/02/18 12:10:20;;;;;;;12.90;5.28;;;10.20;99.90;;;;;;5083060;28;20031;-89
2024/02/18 12:12:46;;;;;;;7.80;4.63;;;9.40;99.90;;;;;;5085132;28;20034;-87
2024/02/18 12:15:23;;;;;;;7.70;4.78;;;10.10;99.90;;;;;;5085571;28;20386;-90
2024/02/18 12:17:52;;;;;;;11.88;5.03;;;10.00;99.90;;;;;;5079306;28;20221;-90
2024/02/18 12:20:19;;;;;;;10.85;5.32;;;10.00;99.90;;;;;;5080483;28;20025;-88
2024/02/18 12:22:47;;;;;;;10.00;4.97;;;10.00;99.90;;;;;;5083492;28;20040;-86
2024/02/18 12:25:14;;;;;;;7.43;4.40;;;10.20;99.90;;;;;;5086643;28;20070;-88
2024/02/18 12:27:40;;;;;;;7.68;4.82;;;10.70;99.90;;;;;;5090904;28;20024;-87
2024/02/18 12:30:07;;;;;;;8.00;4.32;;;10.10;99.90;;;;;;5090212;28;20024;-87
2024/02/18 12:32:36;;;;;;;11.15;5.10;;;10.20;99.90;;;;;;5087482;28;20016;-88
2024/02/18 12:35:05;;;;;;;8.35;4.90;;;10.30;99.90;;;;;;5091395;28;20055;-90
2024/02/18 12:37:31;;;;;;;7.50;4.35;;;10.30;99.90;;;;;;5092217;28;20089;-88
2024/02/18 12:39:57;;;;;;;10.60;4.22;;;10.20;99.90;;;;;;5091852;28;20024;-87
2024/02/18 12:42:24;;;;;;;7.80;4.03;;;11.00;99.90;;;;;;5085249;28;20039;-87
2024/02/18 12:44:53;;;;;;;7.45;3.88;;;10.30;99.90;;;;;;5085725;28;20253;-88
2024/02/18 12:47:20;;;;;;;7.38;4.00;;;10.10;99.90;;;;;;5065824;28;20112;-85
2024/02/18 12:49:46;;;;;;;9.23;3.90;;;10.30;99.90;;;;;;5078612;28;20135;-88
2024/02/18 12:52:13;;;;;;;7.70;3.75;;;10.30;99.90;;;;;;5084916;28;20043;-89
2024/02/18 12:54:41;;;;;;;10.75;4.40;;;10.40;99.90;;;;;;5084775;28;20040;-88
2024/02/18 12:57:07;;;;;;;8.18;3.53;;;12.10;99.90;;;;;;5081372;28;20024;-90
2024/02/18 12:59:34;;;;;;;9.93;4.43;;;10.40;99.90;;;;;;5091391;28;20029;-88
2024/02/18 13:02:03;;;;;;;7.45;3.92;;;11.90;99.90;;;;;;5093580;28;20020;-90
2024/02/18 13:04:32;;;;;;;7.85;4.18;;;8.60;99.90;;;;;;5095816;28;20024;-88
2024/02/18 13:07:04;;;;;;;9.20;4.47;;;10.30;99.90;;;;;;5092017;28;20048;-89
2024/02/18 13:09:35;;;;;;;12.27;4.75;;;10.30;99.90;;;;;;5088761;28;20078;-87
2024/02/18 13:12:04;;;;;;;11.40;4.40;;;11.90;99.90;;;;;;5091413;28;20374;-86
2024/02/18 13:14:30;;;;;;;7.30;3.80;;;10.30;99.90;;;;;;5093210;28;20035;-88
2024/02/18 13:16:55;;;;;;;9.60;3.63;;;10.30;99.90;;;;;;5093354;28;20020;-90
2024/02/18 13:19:21;;;;;;;11.50;4.10;;;10.40;99.90;;;;;;5092931;28;20031;-89
2024/02/18 13:21:47;;;;;;;7.93;4.90;;;11.40;99.90;;;;;;5093505;28;20027;-88
2024/02/18 13:24:45;;;;;;;10.10;4.60;;;11.00;99.90;;;;;;5090034;28;20513;-88
2024/02/18 13:27:11;;;;;;;9.40;3.75;;;10.20;99.90;;;;;;5060394;28;20493;-88
2024/02/18 13:31:16;;;;;;;;;;;;;;;;;;;;;
2024/02/18 13:34:41;;;;;;;;;;;;;;;;;;;;;
2024/02/18 13:38:03;;;;;;;;;;;;;;;;;;;;;
2024/02/18 13:40:46;;;;;;;8.65;3.15;;;10.30;99.90;;;;;;4974676;28;20098;-87
2024/02/18 13:46:58;;;;;;;10.15;3.53;;;10.40;99.90;;;;;;4968842;28;20023;-87
2024/02/18 13:49:26;;;;;;;9.07;3.35;;;10.50;99.90;;;;;;4983616;28;20068;-89
2024/02/18 13:52:13;;;;;;;;;;;;;;;;;;;;;
2024/02/18 13:54:45;;;;;;;5.45;2.63;;;10.40;99.90;;;;;;5023967;28;20067;-88
2024/02/18 14:01:32;;;;;;;8.20;2.53;;;10.70;99.90;;;;;;5001915;28;20037;-90
2024/02/18 14:03:58;;;;;;;5.75;2.90;;;10.70;99.90;;;;;;4947681;28;20042;-90
2024/02/18 14:06:25;;;;;;;9.63;2.80;;;10.80;99.90;;;;;;4998838;28;20674;-91
2024/02/18 14:08:56;;;;;;;7.88;2.78;;;10.50;99.90;;;;;;5016947;28;20033;-89
2024/02/18 14:11:25;;;;;;;8.55;3.33;;;11.20;99.90;;;;;;5016643;28;20041;-88
2024/02/18 14:13:53;;;;;;;8.23;3.00;;;10.40;99.90;;;;;;5050115;28;20131;-90
2024/02/18 14:16:24;;;;;;;5.25;2.92;;;9.80;99.90;;;;;;5089027;28;20032;-89
2024/02/18 14:18:53;;;;;;;12.77;3.08;;;12.00;99.90;;;;;;5095391;28;20631;-89
2024/02/18 14:22:08;;;;;;;7.35;3.10;;;10.10;99.90;;;;;;5098326;28;20050;-91
2024/02/18 14:25:59;;;;;;;7.50;3.17;;;10.40;99.90;;;;;;5002607;28;20088;-90
2024/02/18 14:28:00;;;;;;;8.20;2.90;;;11.60;99.90;;;;;;5014470;28;20029;-91
2024/02/18 14:30:26;;;;;;;5.68;2.88;;;12.20;99.90;;;;;;5087333;28;20032;-90
2024/02/18 14:32:58;;;;;;;9.63;3.63;;;12.30;99.90;;;;;;5080047;28;20280;-90
2024/02/18 14:35:25;;;;;;;11.60;3.17;;;10.30;99.90;;;;;;5081563;28;20092;-90
2024/02/18 14:37:59;;;;;;;7.53;3.80;;;10.30;99.90;;;;;;5079591;28;20383;-87
2024/02/18 14:40:35;;;;;;;7.38;3.33;;;10.40;99.90;;;;;;5082248;28;20016;-88
2024/02/18 14:43:52;;;;;;;6.20;3.22;;;10.10;99.90;;;;;;5081364;28;20027;-88
2024/02/18 14:46:44;;;;;;;6.88;3.50;;;8.20;99.90;;;;;;5086133;28;20032;-87
2024/02/18 14:49:38;;;;;;;;;;;;;;;;;;;;;
2024/02/18 14:52:56;;;;;;;7.93;3.08;;;9.50;99.90;;;;;;5092906;28;20664;-90
2024/02/18 14:56:00;;;;;;;;;;;;;;;;;;;;;
2024/02/18 14:58:36;;;;;;;9.02;3.80;;;10.20;99.90;;;;;;5024955;28;20042;-90
2024/02/18 15:01:11;;;;;;;6.50;3.30;;;9.50;99.90;;;;;;5016555;28;20026;-87
2024/02/18 15:03:37;;;;;;;6.72;3.38;;;10.10;99.90;;;;;;5029690;28;20143;-88
2024/02/18 15:06:12;;;;;;;11.13;5.05;;;12.20;99.90;;;;;;5047889;28;20055;-86
2024/02/18 15:08:38;;;;;;;10.60;4.20;;;10.10;99.90;;;;;;5084659;28;20406;-87
2024/02/18 15:11:04;;;;;;;7.88;3.33;;;;;;;;;;5080470;28;20028;-85
2024/02/18 15:13:30;;;;;;;8.48;3.00;;;10.10;99.90;;;;;;5081931;28;20028;-85
2024/02/18 15:15:56;;;;;;;7.15;3.13;;;10.10;99.90;;;;;;5084607;28;20036;-89
2024/02/18 15:18:24;;;;;;;9.63;3.30;;;10.20;99.90;;;;;;5087538;28;20020;-89
2024/02/18 15:20:58;;;;;;;6.18;3.55;;;10.20;99.90;;;;;;5090124;28;20087;-84
2024/02/18 15:23:24;;;;;;;6.20;3.13;;;10.10;99.90;;;;;;5086021;28;20028;-86
2024/02/18 15:25:53;;;;;;;5.95;3.10;;;10.10;99.90;;;;;;5089621;28;20127;-87
2024/02/18 15:28:20;;;;;;;7.82;4.10;;;9.90;99.90;;;;;;5075340;28;20128;-87
2024/02/18 15:30:45;;;;;;;7.30;4.05;;;10.40;99.90;;;;;;5089954;28;20028;-88
2024/02/18 15:33:11;;;;;;;8.43;3.28;;;10.40;99.90;;;;;;5092369;28;20490;-88
2024/02/18 15:35:37;;;;;;;10.93;4.40;;;9.70;99.90;;;;;;5091877;28;20028;-87
2024/02/18 15:38:06;;;;;;;11.35;4.60;;;9.80;99.90;;;;;;5094066;28;20042;-88
2024/02/18 15:40:42;;;;;;;10.02;5.15;;;9.80;99.90;;;;;;5087933;28;20107;-86
2024/02/18 15:43:07;;;;;;;15.63;7.97;;;9.70;99.90;;;;;;5089635;28;20472;-87
2024/02/18 15:45:34;;;;;;;8.93;4.22;;;9.80;99.90;;;;;;5093827;28;20082;-86
2024/02/18 15:48:00;;;;;;;8.82;4.00;;;9.70;99.90;;;;;;5091172;28;20023;-86
2024/02/18 15:50:28;;;;;;;7.25;3.40;;;9.90;99.90;;;;;;5094577;28;20055;-87
2024/02/18 15:52:54;;;;;;;6.70;3.47;;;7.90;99.90;;;;;;5095143;28;20034;-89
2024/02/18 15:55:21;;;;;;;7.10;3.08;;;;;;;;;;5092386;28;20028;-86
2024/02/18 15:57:54;;;;;;;8.02;3.40;;;;;;;;;;5086197;28;20030;-88
2024/02/18 16:00:23;;;;;;;17.08;10.43;;;;;;;;;;5094293;28;20040;-86
2024/02/18 16:02:49;;;;;;;7.80;3.45;;;;;;;;;;5090217;28;20046;-88
2024/02/18 16:05:15;;;;;;;9.05;3.72;;;;;;;;;;5089893;28;20039;-85
2024/02/18 16:07:44;;;;;;;16.00;4.68;;;9.70;99.90;;;;;;5086213;28;20066;-87
2024/02/18 16:10:11;;;;;;;10.77;3.78;;;10.30;99.90;;;;;;5097592;28;20030;-86
2024/02/18 16:12:37;;;;;;;7.28;3.40;;;;;;;;;;5098284;28;20028;-87
2024/02/18 16:15:03;;;;;;;10.68;3.63;;;9.70;99.90;;;;;;5088697;28;20050;-86
2024/02/18 16:17:29;;;;;;;11.15;4.13;;;9.70;99.90;;;;;;5091319;28;20059;-87
2024/02/18 16:19:55;;;;;;;10.50;4.65;;;;;;;;;;5094206;28;20020;-87
2024/02/18 16:22:22;;;;;;;10.23;3.97;;;9.60;99.90;;;;;;5103379;28;20091;-87
2024/02/18 16:24:51;;;;;;;8.60;3.38;;;9.50;99.90;;;;;;5086307;28;20073;-85
2024/02/18 16:27:16;;;;;;;11.52;4.50;;;7.50;99.90;;;;;;5101463;28;20058;-83
2024/02/18 16:29:42;;;;;;;10.40;4.03;;;;;;;;;;5093471;28;21399;-85
2024/02/18 16:32:14;;;;;;;12.75;6.00;;;9.40;99.90;;;;;;5090974;28;20032;-88
2024/02/18 16:34:43;;;;;;;13.57;6.20;;;;;;;;;;5094176;28;20111;-88
2024/02/18 16:37:08;;;;;;;17.65;9.93;;;9.40;99.90;;;;;;5093041;28;20027;-87
2024/02/18 16:39:35;;;;;;;14.25;7.28;;;;;;;;;;5095129;28;20035;-88
2024/02/18 16:42:02;;;;;;;12.77;7.45;;;9.30;99.90;;;;;;5094263;28;20024;-88
2024/02/18 16:44:29;;;;;;;8.95;3.75;;;11.30;99.90;;;;;;5096418;28;20049;-89
2024/02/18 16:47:03;;;;;;;16.83;5.57;;;7.30;99.90;;;;;;5095253;28;20029;-89
2024/02/18 16:49:32;;;;;;;12.45;5.53;;;9.30;99.90;;;;;;5095420;28;20058;-87
2024/02/18 16:51:57;;;;;;;7.60;4.10;;;11.60;99.90;;;;;;5096197;28;20446;-86
2024/02/18 16:54:24;;;;;;;12.75;4.30;;;11.40;99.90;;;;;;5086809;28;20028;-87
2024/02/18 16:56:50;;;;;;;10.32;6.22;;;7.50;99.90;;;;;;5092079;28;20345;-88
2024/02/18 16:59:16;;;;;;;11.68;5.10;;;;;;;;;;5090047;28;20028;-85
2024/02/18 17:01:52;;;;;;;10.30;3.97;;;9.20;99.90;;;;;;5093866;28;20020;-87
2024/02/18 17:04:18;;;;;;;11.20;3.78;;;9.30;99.90;;;;;;5095715;28;20016;-89
2024/02/18 17:06:44;;;;;;;10.85;5.75;;;;;;;;;;5091809;28;20061;-87
2024/02/18 17:09:20;;;;;;;9.02;5.03;;;9.30;99.90;;;;;;5103643;28;20280;-89
2024/02/18 17:11:47;;;;;;;10.98;4.80;;;;;;;;;;5096006;28;20040;-87
2024/02/18 17:14:14;;;;;;;10.20;4.30;;;9.30;99.90;;;;;;5096069;28;20103;-87
2024/02/18 17:16:40;;;;;;;9.68;4.03;;;10.90;99.90;;;;;;5096001;28;20055;-87
2024/02/18 17:19:09;;;;;;;9.07;3.83;;;;;;;;;;5094254;28;20035;-89
2024/02/18 17:21:35;;;;;;;10.70;4.55;;;9.30;99.90;;;;;;5095968;28;20020;-86
2024/02/18 17:24:06;;;;;;;10.38;4.30;;;10.50;99.90;;;;;;5094621;28;20037;-85
2024/02/18 17:26:32;;;;;;;9.20;3.72;;;;;;;;;;5088360;28;20023;-89
2024/02/18 17:28:58;;;;;;;10.68;4.63;;;;;;;;;;5105264;28;20024;-86
2024/02/18 17:31:25;;;;;;;8.93;3.65;;;8.50;99.90;;;;;;5102325;28;20035;-88
2024/02/18 17:33:50;;;;;;;8.30;3.30;;;9.30;99.90;;;;;;5105304;28;20038;-85
2024/02/18 17:36:22;;;;;;;9.23;3.90;;;9.00;99.90;;;;;;5101907;28;20033;-84
2024/02/18 17:38:47;;;;;;;7.10;2.90;;;9.90;99.90;;;;;;5097775;28;20032;-88
2024/02/18 17:41:14;;;;;;;9.35;3.15;;;;;;;;;;5091349;28;20030;-86
2024/02/18 17:43:39;;;;;;;8.02;3.17;;;9.40;99.90;;;;;;5092879;28;20154;-86
2024/02/18 17:46:15;;;;;;;7.70;2.80;;;9.40;99.90;;;;;;5093701;28;20028;-87
2024/02/18 17:48:46;;;;;;;5.95;2.70;;;9.40;99.90;;;;;;5093217;28;20028;-87
2024/02/18 17:51:14;;;;;;;9.18;3.28;;;10.80;99.90;;;;;;5087385;28;20103;-87
2024/02/18 17:53:40;;;;;;;7.32;3.35;;;;;;;;;;5061995;28;20074;-85
2024/02/18 17:56:07;;;;;;;15.13;3.70;;;9.50;99.90;;;;;;5079033;28;20106;-88
2024/02/18 17:58:33;;;;;;;11.23;3.35;;;;;;;;;;5089319;28;20386;-89
2024/02/18 18:00:59;;;;;;;10.57;3.70;;;9.30;99.90;;;;;;5091228;28;20028;-88
2024/02/18 18:03:25;;;;;;;13.13;3.25;;;;;;;;;;5088430;28;20047;-86
2024/02/18 18:05:51;;;;;;;8.07;3.10;;;;;;;;;;5089099;28;20046;-87
2024/02/18 18:08:20;;;;;;;5.80;3.00;;;9.40;99.90;;;;;;5094524;28;20032;-87
2024/02/18 18:10:46;;;;;;;11.15;3.25;;;8.80;99.90;;;;;;5091113;28;20114;-87
2024/02/18 18:13:12;;;;;;;8.85;2.83;;;9.60;99.90;;;;;;5083618;28;20028;-86
2024/02/18 18:15:38;;;;;;;9.50;3.00;;;;;;;;;;5092691;28;20024;-87
2024/02/18 18:18:04;;;;;;;10.13;3.20;;;9.30;99.90;;;;;;5093637;28;20054;-86
2024/02/18 18:20:30;;;;;;;8.15;3.60;;;;;;;;;;5098184;28;20074;-87
2024/02/18 18:22:56;;;;;;;7.60;3.90;;;9.20;99.90;;;;;;5094124;28;20088;-90
2024/02/18 18:25:22;;;;;;;7.47;3.13;;;;;;;;;;5092152;28;20031;-89
2024/02/18 18:27:48;;;;;;;7.43;3.17;;;9.10;99.90;;;;;;5094008;28;20084;-88
2024/02/18 18:30:14;;;;;;;9.00;3.92;;;;;;;;;;5094904;28;20869;-84
2024/02/18 18:32:40;;;;;;;8.35;3.40;;;;;;;;;;5097484;28;20041;-87
2024/02/18 18:35:17;;;;;;;8.45;3.70;;;9.10;99.90;;;;;;5100046;28;20043;-86
2024/02/18 18:37:43;;;;;;;10.32;4.00;;;;;;;;;;5092156;28;20461;-87
2024/02/18 18:40:17;;;;;;;9.57;4.32;;;8.20;99.90;;;;;;5095158;28;20024;-87
2024/02/18 18:42:46;;;;;;;8.65;4.10;;;;;;;;;;5097671;28;20080;-87
2024/02/18 18:45:12;;;;;;;12.85;5.18;;;9.00;99.90;;;;;;5098944;28;20020;-86
2024/02/18 18:47:38;;;;;;;14.82;5.80;;;;;;;;;;5097020;28;20036;-86
2024/02/18 18:50:04;;;;;;;11.50;4.68;;;;;;;;;;5097765;28;20039;-87
2024/02/18 18:52:35;;;;;;;6.38;3.78;;;9.10;99.90;;;;;;5093977;28;20556;-88
2024/02/18 18:55:04;;;;;;;9.20;3.47;;;9.20;99.90;;;;;;5093118;28;22047;-88
2024/02/18 18:57:31;;;;;;;11.35;4.07;;;9.20;99.90;;;;;;5090795;28;20505;-87
2024/02/18 19:00:00;;;;;;;9.43;3.78;;;;;;;;;;5092717;28;20043;-85
2024/02/18 19:02:26;;;;;;;6.13;3.40;;;9.20;99.90;;;;;;5092241;28;20024;-86
2024/02/18 19:04:52;;;;;;;7.65;3.33;;;;;;;;;;5093183;28;20028;-86
2024/02/18 19:07:32;;;;;;;6.63;3.10;;;9.20;99.90;;;;;;5087958;28;20032;-87
2024/02/18 19:09:58;;;;;;;7.77;3.43;;;;;;;;;;5086773;28;20032;-85
2024/02/18 19:12:31;;;;;;;6.40;3.20;;;;;;;;;;5095557;28;20023;-86
2024/02/18 19:14:57;;;;;;;7.15;3.75;;;9.30;99.90;;;;;;5093074;28;20037;-87
2024/02/18 19:17:25;;;;;;;6.50;3.72;;;;;;;;;;5088007;28;20064;-87
2024/02/18 19:19:54;;;;;;;5.78;3.33;;;9.30;99.90;;;;;;5099079;28;20064;-89
2024/02/18 19:22:22;;;;;;;5.55;2.80;;;9.20;99.90;;;;;;5102636;28;20024;-85
2024/02/18 19:24:52;;;;;;;5.32;2.40;;;;;;;;;;5098483;28;20438;-87
2024/02/18 19:27:18;;;;;;;5.97;2.75;;;9.20;99.90;;;;;;5095636;28;20096;-88
2024/02/18 19:29:44;;;;;;;4.35;2.38;;;10.40;99.90;;;;;;5100483;28;20044;-89
2024/02/18 19:32:09;;;;;;;7.07;3.05;;;9.10;99.90;;;;;;5095303;28;20032;-88
2024/02/18 19:34:35;;;;;;;3.80;2.47;;;;;;;;;;5098002;28;20047;-88
2024/02/18 19:37:01;;;;;;;4.80;2.47;;;9.20;99.90;;;;;;5090369;28;20396;-85
2024/02/18 19:39:27;;;;;;;7.05;2.95;;;;;;;;;;5087922;28;20035;-86
2024/02/18 19:41:53;;;;;;;5.78;2.80;;;;;;;;;;5092089;28;20088;-88
2024/02/18 19:44:19;;;;;;;4.60;2.60;;;9.20;99.90;;;;;;5093651;28;20036;-88
2024/02/18 19:46:46;;;;;;;4.88;2.50;;;9.20;99.90;;;;;;5099189;28;20020;-87
2024/02/18 19:49:12;;;;;;;4.85;2.42;;;11.60;99.90;;;;;;5097491;28;20019;-90
2024/02/18 19:51:44;;;;;;;4.72;2.45;;;9.20;99.90;;;;;;5091595;28;20028;-89
2024/02/18 19:54:10;;;;;;;4.43;2.50;;;9.10;99.90;;;;;;5086380;28;20032;-89
2024/02/18 19:56:36;;;;;;;5.63;2.42;;;;;;;;;;5079768;28;20059;-89
2024/02/18 19:59:03;;;;;;;4.70;2.53;;;;;;;;;;5085514;28;20039;-88
2024/02/18 20:01:29;;;;;;;4.60;2.35;;;9.20;99.90;;;;;;5088229;28;20052;-86
2024/02/18 20:03:55;;;;;;;4.35;2.30;;;;;;;;;;5083043;28;20054;-90
2024/02/18 20:06:20;;;;;;;2.65;1.88;;;10.00;99.90;;;;;;5085128;28;20086;-86
2024/02/18 20:08:47;;;;;;;3.58;2.53;;;;;;;;;;5084627;28;20020;-88
2024/02/18 20:11:14;;;;;;;3.90;2.40;;;;;;;;;;5084549;28;20070;-87
2024/02/18 20:13:39;;;;;;;4.75;2.42;;;9.20;99.90;;;;;;5086771;28;20044;-89
2024/02/18 20:16:06;;;;;;;2.97;1.90;;;11.10;99.90;;;;;;5082881;28;20033;-88
2024/02/18 20:18:32;;;;;;;4.63;2.15;;;9.20;99.90;;;;;;5090931;28;20073;-86
2024/02/18 20:21:00;;;;;;;3.08;1.83;;;;;;;;;;5080017;28;20416;-88
2024/02/18 20:23:25;;;;;;;3.05;1.80;;;9.60;99.90;;;;;;5087867;28;20043;-86
2024/02/18 20:25:51;;;;;;;4.35;1.77;;;;;;;;;;5079863;28;20082;-90
2024/02/18 20:28:17;;;;;;;3.00;1.80;;;9.30;99.90;;;;;;5090516;28;20419;-87
2024/02/18 20:30:43;;;;;;;2.72;1.75;;;;;;;;;;5091756;28;20030;-87
2024/02/18 20:33:11;;;;;;;1.77;1.40;;;;;;;;;;5064337;28;20109;-87
2024/02/18 20:35:38;;;;;;;3.20;1.48;;;;;;;;;;5084986;28;20016;-88
2024/02/18 20:38:04;;;;;;;4.70;2.05;;;9.30;99.90;;;;;;5087429;28;20052;-88
2024/02/18 20:40:30;;;;;;;3.63;1.75;;;;;;;;;;5089361;28;20028;-87
2024/02/18 20:43:01;;;;;;;3.25;1.80;;;9.30;99.90;;;;;;5083131;28;20021;-86
2024/02/18 20:45:31;;;;;;;2.40;1.42;;;9.40;99.90;;;;;;5086033;28;20032;-84
2024/02/18 20:47:57;;;;;;;2.85;1.50;;;;;;;;;;5082519;28;20035;-86
2024/02/18 20:50:24;;;;;;;5.38;2.40;;;9.30;99.90;;;;;;5080675;28;20057;-86
2024/02/18 20:53:27;;;;;;;3.08;1.60;;;9.30;99.90;;;;;;5079368;28;20046;-87
2024/02/18 20:55:56;;;;;;;2.17;1.60;;;;;;;;;;5081037;28;20093;-87
2024/02/18 21:02:12;;;;;;;;;;;;;;;;;;;;;
2024/02/18 21:08:27;;;;;;;2.50;1.30;;;9.50;99.90;;;;;;5013732;28;20568;-89
2024/02/18 21:21:15;;;;;;;;;;;;;;;;;;;;;
2024/02/18 21:24:14;;;;;;;7.53;2.92;;;12.00;99.90;;;;;;5100185;28;20051;-87
2024/02/18 21:26:52;;;;;;;7.22;2.80;;;9.50;99.90;;;;;;5099148;28;20016;-86
2024/02/18 21:29:21;;;;;;;4.05;2.08;;;;;;;;;;5101746;28;20024;-87
2024/02/18 21:31:50;;;;;;;6.13;2.30;;;9.50;99.90;;;;;;5100144;28;20059;-88
2024/02/18 21:34:22;;;;;;;4.53;2.35;;;9.50;99.90;;;;;;5100854;28;20112;-87
2024/02/18 21:37:07;;;;;;;3.20;2.20;;;9.50;99.90;;;;;;5097412;28;20040;-88
2024/02/18 21:39:36;;;;;;;3.38;1.67;;;;;;;;;;5100529;28;21633;-87
2024/02/18 21:42:11;;;;;;;3.08;1.50;;;9.50;99.90;;;;;;5096726;28;20021;-87
2024/02/18 21:44:40;;;;;;;2.30;1.70;;;;;;;;;;5101036;28;20122;-87
2024/02/18 21:47:13;;;;;;;3.20;1.83;;;9.60;99.90;;;;;;5089371;28;20027;-89
2024/02/18 21:49:39;;;;;;;6.70;2.70;;;11.00;99.90;;;;;;5090416;28;20028;-89
2024/02/18 21:52:14;;;;;;;2.70;1.90;;;9.60;99.90;;;;;;5090013;28;20385;-85
2024/02/18 21:54:47;;;;;;;3.42;1.80;;;;;;;;;;5088062;28;20095;-87
2024/02/18 21:57:17;;;;;;;1.95;1.52;;;9.60;99.90;;;;;;5082645;28;20038;-87
2024/02/18 21:59:44;;;;;;;3.78;1.67;;;;;;;;;;5076482;28;20620;-88
2024/02/18 22:02:12;;;;;;;3.00;1.92;;;9.60;99.90;;;;;;5085043;28;20036;-89
2024/02/18 22:04:39;;;;;;;3.13;1.70;;;;;;;;;;5094190;28;20461;-86
2024/02/18 22:07:14;;;;;;;2.10;1.58;;;9.60;99.90;;;;;;5082856;28;20532;-85
2024/02/18 22:10:00;;;;;;;3.10;1.83;;;9.60;99.90;;;;;;5090847;28;20036;-85
2024/02/18 22:12:38;;;;;;;3.35;1.67;;;9.60;99.90;;;;;;5083174;28;20044;-86
2024/02/18 22:15:08;;;;;;;2.20;1.70;;;;;;;;;;5099072;28;20029;-88
2024/02/18 22:17:54;;;;;;;;;;;;;;;;;;;;;
2024/02/18 22:20:36;;;;;;;3.60;1.70;;;11.50;99.90;;;;;;5086814;28;20096;-87
2024/02/18 22:23:29;;;;;;;2.30;1.63;;;9.70;99.90;;;;;;5091836;28;20026;-87
2024/02/18 22:25:58;;;;;;;2.90;1.70;;;9.80;99.90;;;;;;5085879;28;20033;-87
2024/02/18 22:28:27;;;;;;;3.25;1.98;;;;;;;;;;5087737;28;20081;-86
2024/02/18 22:31:24;;;;;;;2.83;1.70;;;9.80;99.90;;;;;;5085697;28;20044;-86
2024/02/18 22:34:15;;;;;;;2.65;1.70;;;9.70;99.90;;;;;;5043115;28;20060;-90
2024/02/18 22:39:54;;;;;;;2.35;1.48;;;9.70;99.90;;;;;;5086523;28;19908;-87
2024/02/18 22:42:20;;;;;;;1.95;1.50;;;;;;;;;;5084273;28;20024;-84
2024/02/18 22:45:02;;;;;;;3.42;1.67;;;;;;;;;;5095021;28;20033;-86
2024/02/18 22:48:26;;;;;;;;;;;;;;;;;;;;;
2024/02/18 22:51:03;;;;;;;3.05;2.03;;;9.90;99.90;;;;;;5093243;28;20119;-88
2024/02/18 22:53:31;;;;;;;2.38;1.80;;;;;;;;;;5093655;28;20036;-88
2024/02/18 22:55:57;;;;;;;2.78;2.00;;;9.90;99.90;;;;;;5094044;28;20035;-87
2024/02/18 22:58:23;;;;;;;3.13;2.00;;;;;;;;;;5088273;28;20094;-87
2024/02/18 23:00:52;;;;;;;3.20;2.10;;;;;;;;;;5088521;28;20024;-88
2024/02/18 23:03:22;;;;;;;3.30;2.13;;;9.90;99.90;;;;;;5085201;28;20080;-87
2024/02/18 23:05:51;;;;;;;2.63;1.88;;;;;;;;;;5086425;28;20037;-83
2024/02/18 23:08:29;;;;;;;2.67;1.95;;;9.80;99.90;;;;;;5096190;28;20025;-86